sensor_id;sensor_type;location;lat;lon;timestamp;P1;durP1;ratioP1;P2;durP2;ratioP2
77451;SDS011;66537;52.370;4.832;2023-04-29T00:00:34;46.70;;;20.40;;
77451;SDS011;66537;52.370;4.832;2023-04-29T00:03:00;47.63;;;19.77;;
77451;SDS011;66537;52.370;4.832;2023-04-29T00:05:26;50.40;;;20.20;;
77451;SDS011;66537;52.370;4.832;2023-04-29T00:07:51;47.13;;;20.13;;
77451;SDS011;66537;52.370;4.832;2023-04-29T00:10:17;46.72;;;18.85;;
77451;SDS011;66537;52.370;4.832;2023-04-29T00:12:42;44.95;;;20.83;;
77451;SDS011;66537;52.370;4.832;2023-04-29T00:15:08;41.22;;;18.75;;
77451;SDS011;66537;52.370;4.832;2023-04-29T00:17:33;39.60;;;18.55;;
77451;SDS011;66537;52.370;4.832;2023-04-29T00:19:59;38.80;;;18.48;;
77451;SDS011;66537;52.370;4.832;2023-04-29T00:22:24;41.38;;;18.58;;
77451;SDS011;66537;52.370;4.832;2023-04-29T00:24:50;39.85;;;17.85;;
77451;SDS011;66537;52.370;4.832;2023-04-29T00:27:17;37.35;;;18.13;;
77451;SDS011;66537;52.370;4.832;2023-04-29T00:29:42;43.28;;;18.90;;
77451;SDS011;66537;52.370;4.832;2023-04-29T00:32:07;40.65;;;17.33;;
77451;SDS011;66537;52.370;4.832;2023-04-29T00:34:33;36.88;;;17.65;;
77451;SDS011;66537;52.370;4.832;2023-04-29T00:36:58;37.30;;;17.70;;
77451;SDS011;66537;52.370;4.832;2023-04-29T00:39:23;35.67;;;17.13;;
77451;SDS011;66537;52.370;4.832;2023-04-29T00:41:49;33.47;;;15.15;;
77451;SDS011;66537;52.370;4.832;2023-04-29T00:44:15;34.60;;;16.80;;
77451;SDS011;66537;52.370;4.832;2023-04-29T00:46:41;34.88;;;15.88;;
77451;SDS011;66537;52.370;4.832;2023-04-29T00:49:06;36.22;;;17.15;;
77451;SDS011;66537;52.370;4.832;2023-04-29T00:51:33;40.53;;;19.30;;
77451;SDS011;66537;52.370;4.832;2023-04-29T00:54:00;42.58;;;18.55;;
77451;SDS011;66537;52.370;4.832;2023-04-29T00:56:25;43.97;;;17.33;;
77451;SDS011;66537;52.370;4.832;2023-04-29T00:58:54;48.53;;;18.33;;
77451;SDS011;66537;52.370;4.832;2023-04-29T01:01:21;38.83;;;17.55;;
77451;SDS011;66537;52.370;4.832;2023-04-29T01:03:47;38.33;;;17.88;;
77451;SDS011;66537;52.370;4.832;2023-04-29T01:11:52;35.47;;;15.68;;
77451;SDS011;66537;52.370;4.832;2023-04-29T01:14:35;39.95;;;16.85;;
77451;SDS011;66537;52.370;4.832;2023-04-29T01:17:09;33.15;;;17.40;;
77451;SDS011;66537;52.370;4.832;2023-04-29T01:19:51;34.15;;;16.55;;
77451;SDS011;66537;52.370;4.832;2023-04-29T01:22:19;41.67;;;18.90;;
77451;SDS011;66537;52.370;4.832;2023-04-29T01:24:46;34.25;;;15.68;;
77451;SDS011;66537;52.370;4.832;2023-04-29T01:30:01;32.40;;;15.85;;
77451;SDS011;66537;52.370;4.832;2023-04-29T01:38:32;38.60;;;16.98;;
77451;SDS011;66537;52.370;4.832;2023-04-29T01:41:09;37.90;;;15.45;;
77451;SDS011;66537;52.370;4.832;2023-04-29T01:43:52;33.90;;;15.80;;
77451;SDS011;66537;52.370;4.832;2023-04-29T01:46:20;34.65;;;15.90;;
77451;SDS011;66537;52.370;4.832;2023-04-29T01:48:46;36.55;;;15.38;;
77451;SDS011;66537;52.370;4.832;2023-04-29T01:51:11;31.27;;;15.38;;
77451;SDS011;66537;52.370;4.832;2023-04-29T01:53:37;34.28;;;15.13;;
77451;SDS011;66537;52.370;4.832;2023-04-29T01:56:04;35.65;;;15.65;;
77451;SDS011;66537;52.370;4.832;2023-04-29T01:58:31;39.40;;;16.15;;
77451;SDS011;66537;52.370;4.832;2023-04-29T02:00:56;34.30;;;15.13;;
77451;SDS011;66537;52.370;4.832;2023-04-29T02:03:22;35.55;;;15.95;;
77451;SDS011;66537;52.370;4.832;2023-04-29T02:05:47;36.85;;;15.07;;
77451;SDS011;66537;52.370;4.832;2023-04-29T02:08:14;29.98;;;14.18;;
77451;SDS011;66537;52.370;4.832;2023-04-29T02:10:40;31.77;;;13.98;;
77451;SDS011;66537;52.370;4.832;2023-04-29T02:13:06;33.95;;;14.43;;
77451;SDS011;66537;52.370;4.832;2023-04-29T02:15:31;34.70;;;14.93;;
77451;SDS011;66537;52.370;4.832;2023-04-29T02:17:56;29.73;;;14.80;;
77451;SDS011;66537;52.370;4.832;2023-04-29T02:20:22;30.73;;;15.02;;
77451;SDS011;66537;52.370;4.832;2023-04-29T02:22:47;31.23;;;15.73;;
77451;SDS011;66537;52.370;4.832;2023-04-29T02:25:13;30.50;;;15.40;;
77451;SDS011;66537;52.370;4.832;2023-04-29T02:27:38;35.75;;;16.70;;
77451;SDS011;66537;52.370;4.832;2023-04-29T02:30:04;32.40;;;15.05;;
77451;SDS011;66537;52.370;4.832;2023-04-29T02:32:30;32.58;;;14.35;;
77451;SDS011;66537;52.370;4.832;2023-04-29T02:34:55;33.10;;;15.00;;
77451;SDS011;66537;52.370;4.832;2023-04-29T02:37:21;36.22;;;15.73;;
77451;SDS011;66537;52.370;4.832;2023-04-29T02:39:46;33.78;;;15.45;;
77451;SDS011;66537;52.370;4.832;2023-04-29T02:42:11;34.80;;;16.13;;
77451;SDS011;66537;52.370;4.832;2023-04-29T02:44:37;30.92;;;15.02;;
77451;SDS011;66537;52.370;4.832;2023-04-29T02:47:03;36.13;;;15.65;;
77451;SDS011;66537;52.370;4.832;2023-04-29T02:49:28;29.20;;;14.27;;
77451;SDS011;66537;52.370;4.832;2023-04-29T02:51:54;31.45;;;15.85;;
77451;SDS011;66537;52.370;4.832;2023-04-29T02:54:19;34.30;;;14.70;;
77451;SDS011;66537;52.370;4.832;2023-04-29T02:56:45;33.42;;;15.80;;
77451;SDS011;66537;52.370;4.832;2023-04-29T02:59:10;35.00;;;15.90;;
77451;SDS011;66537;52.370;4.832;2023-04-29T03:01:36;33.27;;;15.70;;
77451;SDS011;66537;52.370;4.832;2023-04-29T03:04:02;37.22;;;16.55;;
77451;SDS011;66537;52.370;4.832;2023-04-29T03:06:28;36.10;;;16.10;;
77451;SDS011;66537;52.370;4.832;2023-04-29T03:08:53;38.70;;;15.67;;
77451;SDS011;66537;52.370;4.832;2023-04-29T03:11:19;31.93;;;14.53;;
77451;SDS011;66537;52.370;4.832;2023-04-29T03:13:44;31.20;;;14.35;;
77451;SDS011;66537;52.370;4.832;2023-04-29T03:16:10;43.93;;;17.37;;
77451;SDS011;66537;52.370;4.832;2023-04-29T03:18:37;32.47;;;13.55;;
77451;SDS011;66537;52.370;4.832;2023-04-29T03:21:03;35.00;;;15.48;;
77451;SDS011;66537;52.370;4.832;2023-04-29T03:23:28;35.05;;;15.82;;
77451;SDS011;66537;52.370;4.832;2023-04-29T03:25:54;32.83;;;14.50;;
77451;SDS011;66537;52.370;4.832;2023-04-29T03:28:19;39.70;;;15.43;;
77451;SDS011;66537;52.370;4.832;2023-04-29T03:30:45;41.22;;;15.55;;
77451;SDS011;66537;52.370;4.832;2023-04-29T03:33:10;34.57;;;15.77;;
77451;SDS011;66537;52.370;4.832;2023-04-29T03:35:35;41.13;;;16.93;;
77451;SDS011;66537;52.370;4.832;2023-04-29T03:38:01;37.77;;;16.13;;
77451;SDS011;66537;52.370;4.832;2023-04-29T03:40:26;38.03;;;14.87;;
77451;SDS011;66537;52.370;4.832;2023-04-29T03:42:51;35.30;;;15.50;;
77451;SDS011;66537;52.370;4.832;2023-04-29T03:45:16;31.67;;;15.03;;
77451;SDS011;66537;52.370;4.832;2023-04-29T03:47:42;34.90;;;14.27;;
77451;SDS011;66537;52.370;4.832;2023-04-29T03:50:07;35.05;;;14.63;;
77451;SDS011;66537;52.370;4.832;2023-04-29T03:52:33;33.72;;;14.48;;
77451;SDS011;66537;52.370;4.832;2023-04-29T03:55:00;40.45;;;16.98;;
77451;SDS011;66537;52.370;4.832;2023-04-29T03:57:26;33.47;;;14.73;;
77451;SDS011;66537;52.370;4.832;2023-04-29T03:59:52;33.92;;;15.00;;
77451;SDS011;66537;52.370;4.832;2023-04-29T04:02:17;37.00;;;16.00;;
77451;SDS011;66537;52.370;4.832;2023-04-29T04:04:43;30.13;;;14.50;;
77451;SDS011;66537;52.370;4.832;2023-04-29T04:07:08;33.25;;;14.15;;
77451;SDS011;66537;52.370;4.832;2023-04-29T04:09:34;37.65;;;16.08;;
77451;SDS011;66537;52.370;4.832;2023-04-29T04:11:59;37.15;;;15.52;;
77451;SDS011;66537;52.370;4.832;2023-04-29T04:14:24;33.60;;;15.38;;
77451;SDS011;66537;52.370;4.832;2023-04-29T04:16:50;36.78;;;15.88;;
77451;SDS011;66537;52.370;4.832;2023-04-29T04:19:15;37.60;;;15.18;;
77451;SDS011;66537;52.370;4.832;2023-04-29T04:21:41;33.00;;;15.93;;
77451;SDS011;66537;52.370;4.832;2023-04-29T04:24:06;33.85;;;15.30;;
77451;SDS011;66537;52.370;4.832;2023-04-29T04:26:32;34.70;;;15.43;;
77451;SDS011;66537;52.370;4.832;2023-04-29T04:28:57;36.88;;;16.05;;
77451;SDS011;66537;52.370;4.832;2023-04-29T04:31:23;40.97;;;15.07;;
77451;SDS011;66537;52.370;4.832;2023-04-29T04:33:49;37.90;;;16.35;;
77451;SDS011;66537;52.370;4.832;2023-04-29T04:36:14;40.30;;;16.13;;
77451;SDS011;66537;52.370;4.832;2023-04-29T04:38:39;33.88;;;14.77;;
77451;SDS011;66537;52.370;4.832;2023-04-29T04:41:05;37.83;;;15.77;;
77451;SDS011;66537;52.370;4.832;2023-04-29T04:43:32;34.67;;;14.40;;
77451;SDS011;66537;52.370;4.832;2023-04-29T04:45:57;41.83;;;16.05;;
77451;SDS011;66537;52.370;4.832;2023-04-29T04:48:22;32.00;;;14.43;;
77451;SDS011;66537;52.370;4.832;2023-04-29T04:50:48;36.15;;;14.77;;
77451;SDS011;66537;52.370;4.832;2023-04-29T04:53:13;32.33;;;14.47;;
77451;SDS011;66537;52.370;4.832;2023-04-29T04:55:38;36.92;;;15.20;;
77451;SDS011;66537;52.370;4.832;2023-04-29T04:58:04;42.63;;;15.33;;
77451;SDS011;66537;52.370;4.832;2023-04-29T05:00:29;36.83;;;15.38;;
77451;SDS011;66537;52.370;4.832;2023-04-29T05:02:55;38.67;;;16.33;;
77451;SDS011;66537;52.370;4.832;2023-04-29T05:05:20;40.80;;;16.02;;
77451;SDS011;66537;52.370;4.832;2023-04-29T05:07:45;37.42;;;15.45;;
77451;SDS011;66537;52.370;4.832;2023-04-29T05:10:11;32.85;;;15.10;;
77451;SDS011;66537;52.370;4.832;2023-04-29T05:12:36;36.80;;;15.00;;
77451;SDS011;66537;52.370;4.832;2023-04-29T05:15:02;36.27;;;15.53;;
77451;SDS011;66537;52.370;4.832;2023-04-29T05:17:28;34.90;;;14.75;;
77451;SDS011;66537;52.370;4.832;2023-04-29T05:19:54;38.05;;;14.43;;
77451;SDS011;66537;52.370;4.832;2023-04-29T05:22:19;33.40;;;14.00;;
77451;SDS011;66537;52.370;4.832;2023-04-29T05:24:45;31.43;;;13.50;;
77451;SDS011;66537;52.370;4.832;2023-04-29T05:27:12;32.97;;;12.93;;
77451;SDS011;66537;52.370;4.832;2023-04-29T05:29:38;33.33;;;12.38;;
77451;SDS011;66537;52.370;4.832;2023-04-29T05:32:03;31.97;;;13.57;;
77451;SDS011;66537;52.370;4.832;2023-04-29T05:34:28;33.58;;;13.93;;
77451;SDS011;66537;52.370;4.832;2023-04-29T05:36:54;35.53;;;12.20;;
77451;SDS011;66537;52.370;4.832;2023-04-29T05:39:19;25.25;;;10.88;;
77451;SDS011;66537;52.370;4.832;2023-04-29T05:41:45;28.08;;;12.45;;
77451;SDS011;66537;52.370;4.832;2023-04-29T05:44:10;31.20;;;11.43;;
77451;SDS011;66537;52.370;4.832;2023-04-29T05:46:35;27.70;;;11.55;;
77451;SDS011;66537;52.370;4.832;2023-04-29T05:49:01;28.25;;;12.15;;
77451;SDS011;66537;52.370;4.832;2023-04-29T05:51:26;34.03;;;12.70;;
77451;SDS011;66537;52.370;4.832;2023-04-29T05:53:52;30.33;;;11.45;;
77451;SDS011;66537;52.370;4.832;2023-04-29T05:56:18;29.55;;;12.10;;
77451;SDS011;66537;52.370;4.832;2023-04-29T05:58:44;29.38;;;11.40;;
77451;SDS011;66537;52.370;4.832;2023-04-29T06:01:09;30.58;;;11.82;;
77451;SDS011;66537;52.370;4.832;2023-04-29T06:03:35;28.75;;;11.75;;
77451;SDS011;66537;52.370;4.832;2023-04-29T06:06:01;28.70;;;12.35;;
77451;SDS011;66537;52.370;4.832;2023-04-29T06:08:26;28.30;;;11.43;;
77451;SDS011;66537;52.370;4.832;2023-04-29T06:10:52;30.17;;;12.50;;
77451;SDS011;66537;52.370;4.832;2023-04-29T06:13:18;31.13;;;12.27;;
77451;SDS011;66537;52.370;4.832;2023-04-29T06:15:43;28.85;;;12.02;;
77451;SDS011;66537;52.370;4.832;2023-04-29T06:18:08;31.27;;;12.35;;
77451;SDS011;66537;52.370;4.832;2023-04-29T06:20:34;31.40;;;11.77;;
77451;SDS011;66537;52.370;4.832;2023-04-29T06:22:59;23.85;;;11.30;;
77451;SDS011;66537;52.370;4.832;2023-04-29T06:25:24;27.50;;;10.53;;
77451;SDS011;66537;52.370;4.832;2023-04-29T06:27:50;25.23;;;9.60;;
77451;SDS011;66537;52.370;4.832;2023-04-29T06:30:15;24.50;;;10.65;;
77451;SDS011;66537;52.370;4.832;2023-04-29T06:32:41;26.43;;;11.00;;
77451;SDS011;66537;52.370;4.832;2023-04-29T06:35:06;26.30;;;11.20;;
77451;SDS011;66537;52.370;4.832;2023-04-29T06:37:32;25.75;;;10.30;;
77451;SDS011;66537;52.370;4.832;2023-04-29T06:39:58;25.73;;;9.40;;
77451;SDS011;66537;52.370;4.832;2023-04-29T06:42:23;26.15;;;10.07;;
77451;SDS011;66537;52.370;4.832;2023-04-29T06:44:48;24.70;;;9.37;;
77451;SDS011;66537;52.370;4.832;2023-04-29T06:47:14;30.13;;;10.77;;
77451;SDS011;66537;52.370;4.832;2023-04-29T06:49:39;20.27;;;9.13;;
77451;SDS011;66537;52.370;4.832;2023-04-29T06:52:05;25.20;;;9.13;;
77451;SDS011;66537;52.370;4.832;2023-04-29T06:54:30;20.08;;;9.57;;
77451;SDS011;66537;52.370;4.832;2023-04-29T06:56:56;21.00;;;8.55;;
77451;SDS011;66537;52.370;4.832;2023-04-29T06:59:22;23.45;;;8.80;;
77451;SDS011;66537;52.370;4.832;2023-04-29T07:01:47;44.35;;;11.30;;
77451;SDS011;66537;52.370;4.832;2023-04-29T07:04:13;22.40;;;9.65;;
77451;SDS011;66537;52.370;4.832;2023-04-29T07:06:38;21.80;;;8.70;;
77451;SDS011;66537;52.370;4.832;2023-04-29T07:09:04;20.75;;;7.78;;
77451;SDS011;66537;52.370;4.832;2023-04-29T07:11:29;20.63;;;8.35;;
77451;SDS011;66537;52.370;4.832;2023-04-29T07:13:54;18.27;;;8.82;;
77451;SDS011;66537;52.370;4.832;2023-04-29T07:16:20;19.08;;;8.57;;
77451;SDS011;66537;52.370;4.832;2023-04-29T07:18:46;18.58;;;8.35;;
77451;SDS011;66537;52.370;4.832;2023-04-29T07:21:12;21.27;;;9.20;;
77451;SDS011;66537;52.370;4.832;2023-04-29T07:23:38;20.77;;;8.35;;
77451;SDS011;66537;52.370;4.832;2023-04-29T07:26:13;15.32;;;7.80;;
77451;SDS011;66537;52.370;4.832;2023-04-29T07:28:40;16.25;;;7.80;;
77451;SDS011;66537;52.370;4.832;2023-04-29T07:31:06;15.55;;;7.35;;
77451;SDS011;66537;52.370;4.832;2023-04-29T07:33:32;16.40;;;8.27;;
77451;SDS011;66537;52.370;4.832;2023-04-29T07:35:58;16.02;;;7.85;;
77451;SDS011;66537;52.370;4.832;2023-04-29T07:38:23;19.67;;;8.85;;
77451;SDS011;66537;52.370;4.832;2023-04-29T07:40:49;16.65;;;7.72;;
77451;SDS011;66537;52.370;4.832;2023-04-29T07:43:14;18.52;;;7.68;;
77451;SDS011;66537;52.370;4.832;2023-04-29T07:45:40;20.53;;;8.00;;
77451;SDS011;66537;52.370;4.832;2023-04-29T07:48:05;17.10;;;7.68;;
77451;SDS011;66537;52.370;4.832;2023-04-29T07:50:34;17.42;;;8.10;;
77451;SDS011;66537;52.370;4.832;2023-04-29T07:53:00;16.30;;;7.57;;
77451;SDS011;66537;52.370;4.832;2023-04-29T07:55:26;19.98;;;8.07;;
77451;SDS011;66537;52.370;4.832;2023-04-29T07:57:53;17.60;;;6.97;;
77451;SDS011;66537;52.370;4.832;2023-04-29T08:00:20;18.70;;;7.60;;
77451;SDS011;66537;52.370;4.832;2023-04-29T08:02:45;16.65;;;7.80;;
77451;SDS011;66537;52.370;4.832;2023-04-29T08:05:11;20.25;;;7.03;;
77451;SDS011;66537;52.370;4.832;2023-04-29T08:07:36;18.05;;;7.47;;
77451;SDS011;66537;52.370;4.832;2023-04-29T08:10:02;14.47;;;7.23;;
77451;SDS011;66537;52.370;4.832;2023-04-29T08:12:27;20.35;;;7.38;;
77451;SDS011;66537;52.370;4.832;2023-04-29T08:14:52;15.77;;;7.05;;
77451;SDS011;66537;52.370;4.832;2023-04-29T08:17:18;17.33;;;7.10;;
77451;SDS011;66537;52.370;4.832;2023-04-29T08:19:43;19.98;;;7.80;;
77451;SDS011;66537;52.370;4.832;2023-04-29T08:22:08;16.83;;;6.70;;
77451;SDS011;66537;52.370;4.832;2023-04-29T08:24:36;19.13;;;7.40;;
77451;SDS011;66537;52.370;4.832;2023-04-29T08:27:01;14.75;;;7.57;;
77451;SDS011;66537;52.370;4.832;2023-04-29T08:29:29;18.20;;;6.97;;
77451;SDS011;66537;52.370;4.832;2023-04-29T08:31:56;18.42;;;8.50;;
77451;SDS011;66537;52.370;4.832;2023-04-29T08:34:22;13.43;;;6.80;;
77451;SDS011;66537;52.370;4.832;2023-04-29T08:36:47;20.95;;;7.38;;
77451;SDS011;66537;52.370;4.832;2023-04-29T08:39:13;17.65;;;7.40;;
77451;SDS011;66537;52.370;4.832;2023-04-29T08:41:38;15.55;;;6.43;;
77451;SDS011;66537;52.370;4.832;2023-04-29T08:44:03;15.27;;;6.87;;
77451;SDS011;66537;52.370;4.832;2023-04-29T08:46:29;14.77;;;6.20;;
77451;SDS011;66537;52.370;4.832;2023-04-29T08:48:56;14.98;;;6.82;;
77451;SDS011;66537;52.370;4.832;2023-04-29T08:51:22;13.77;;;5.95;;
77451;SDS011;66537;52.370;4.832;2023-04-29T08:53:48;12.02;;;6.00;;
77451;SDS011;66537;52.370;4.832;2023-04-29T08:56:17;17.00;;;6.35;;
77451;SDS011;66537;52.370;4.832;2023-04-29T08:58:45;14.00;;;6.38;;
77451;SDS011;66537;52.370;4.832;2023-04-29T09:01:15;14.95;;;6.30;;
77451;SDS011;66537;52.370;4.832;2023-04-29T09:06:06;12.70;;;6.10;;
77451;SDS011;66537;52.370;4.832;2023-04-29T09:08:34;12.50;;;5.35;;
77451;SDS011;66537;52.370;4.832;2023-04-29T09:11:01;14.35;;;6.03;;
77451;SDS011;66537;52.370;4.832;2023-04-29T09:13:27;12.18;;;5.90;;
77451;SDS011;66537;52.370;4.832;2023-04-29T09:15:53;14.00;;;6.20;;
77451;SDS011;66537;52.370;4.832;2023-04-29T09:21:14;13.23;;;6.50;;
77451;SDS011;66537;52.370;4.832;2023-04-29T09:23:40;14.65;;;6.57;;
77451;SDS011;66537;52.370;4.832;2023-04-29T09:26:06;13.07;;;6.57;;
77451;SDS011;66537;52.370;4.832;2023-04-29T09:28:31;12.73;;;6.13;;
77451;SDS011;66537;52.370;4.832;2023-04-29T09:30:57;12.55;;;6.05;;
77451;SDS011;66537;52.370;4.832;2023-04-29T09:33:23;13.27;;;6.40;;
77451;SDS011;66537;52.370;4.832;2023-04-29T09:35:52;15.43;;;6.80;;
77451;SDS011;66537;52.370;4.832;2023-04-29T09:38:18;16.73;;;6.75;;
77451;SDS011;66537;52.370;4.832;2023-04-29T09:40:43;17.52;;;8.20;;
77451;SDS011;66537;52.370;4.832;2023-04-29T09:43:13;13.07;;;7.00;;
77451;SDS011;66537;52.370;4.832;2023-04-29T09:45:42;12.48;;;6.82;;
77451;SDS011;66537;52.370;4.832;2023-04-29T09:48:09;13.60;;;7.07;;
77451;SDS011;66537;52.370;4.832;2023-04-29T09:50:36;14.25;;;7.07;;
77451;SDS011;66537;52.370;4.832;2023-04-29T09:53:03;14.05;;;7.03;;
77451;SDS011;66537;52.370;4.832;2023-04-29T09:55:30;15.15;;;7.93;;
77451;SDS011;66537;52.370;4.832;2023-04-29T09:57:56;15.55;;;7.13;;
77451;SDS011;66537;52.370;4.832;2023-04-29T10:00:21;14.82;;;7.18;;
77451;SDS011;66537;52.370;4.832;2023-04-29T10:02:47;14.45;;;6.85;;
77451;SDS011;66537;52.370;4.832;2023-04-29T10:05:16;14.15;;;7.35;;
77451;SDS011;66537;52.370;4.832;2023-04-29T10:07:42;17.80;;;7.47;;
77451;SDS011;66537;52.370;4.832;2023-04-29T10:10:10;14.18;;;6.07;;
77451;SDS011;66537;52.370;4.832;2023-04-29T10:12:38;15.75;;;6.60;;
77451;SDS011;66537;52.370;4.832;2023-04-29T10:18:02;14.27;;;6.43;;
77451;SDS011;66537;52.370;4.832;2023-04-29T10:20:33;11.77;;;5.95;;
77451;SDS011;66537;52.370;4.832;2023-04-29T10:23:01;11.98;;;6.10;;
77451;SDS011;66537;52.370;4.832;2023-04-29T10:25:28;12.40;;;5.35;;
77451;SDS011;66537;52.370;4.832;2023-04-29T10:27:54;15.82;;;6.28;;
77451;SDS011;66537;52.370;4.832;2023-04-29T10:30:20;16.33;;;7.15;;
77451;SDS011;66537;52.370;4.832;2023-04-29T10:32:47;12.55;;;6.22;;
77451;SDS011;66537;52.370;4.832;2023-04-29T10:35:14;13.27;;;6.63;;
77451;SDS011;66537;52.370;4.832;2023-04-29T10:37:42;14.77;;;6.00;;
77451;SDS011;66537;52.370;4.832;2023-04-29T10:40:21;10.77;;;5.93;;
77451;SDS011;66537;52.370;4.832;2023-04-29T10:42:52;11.35;;;6.38;;
77451;SDS011;66537;52.370;4.832;2023-04-29T10:45:28;12.25;;;5.50;;
77451;SDS011;66537;52.370;4.832;2023-04-29T10:50:28;15.05;;;6.53;;
77451;SDS011;66537;52.370;4.832;2023-04-29T10:52:54;15.60;;;6.78;;
77451;SDS011;66537;52.370;4.832;2023-04-29T10:55:20;14.68;;;6.22;;
77451;SDS011;66537;52.370;4.832;2023-04-29T10:57:47;11.13;;;5.25;;
77451;SDS011;66537;52.370;4.832;2023-04-29T11:02:55;12.98;;;5.60;;
77451;SDS011;66537;52.370;4.832;2023-04-29T11:05:30;11.10;;;5.20;;
77451;SDS011;66537;52.370;4.832;2023-04-29T11:11:09;13.32;;;6.20;;
77451;SDS011;66537;52.370;4.832;2023-04-29T11:13:39;11.65;;;5.20;;
77451;SDS011;66537;52.370;4.832;2023-04-29T11:16:09;13.35;;;5.18;;
77451;SDS011;66537;52.370;4.832;2023-04-29T11:18:36;13.98;;;5.82;;
77451;SDS011;66537;52.370;4.832;2023-04-29T11:21:33;10.05;;;5.38;;
77451;SDS011;66537;52.370;4.832;2023-04-29T11:24:02;10.20;;;4.80;;
77451;SDS011;66537;52.370;4.832;2023-04-29T11:26:30;12.32;;;5.35;;
77451;SDS011;66537;52.370;4.832;2023-04-29T11:28:59;14.60;;;5.55;;
77451;SDS011;66537;52.370;4.832;2023-04-29T11:31:34;15.85;;;6.05;;
77451;SDS011;66537;52.370;4.832;2023-04-29T11:34:00;13.68;;;5.25;;
77451;SDS011;66537;52.370;4.832;2023-04-29T11:36:25;12.90;;;5.15;;
77451;SDS011;66537;52.370;4.832;2023-04-29T11:38:54;11.25;;;5.57;;
77451;SDS011;66537;52.370;4.832;2023-04-29T11:41:19;14.77;;;6.15;;
77451;SDS011;66537;52.370;4.832;2023-04-29T11:43:46;11.80;;;5.60;;
77451;SDS011;66537;52.370;4.832;2023-04-29T11:46:11;12.53;;;5.67;;
77451;SDS011;66537;52.370;4.832;2023-04-29T11:48:44;13.50;;;5.88;;
77451;SDS011;66537;52.370;4.832;2023-04-29T11:51:10;12.52;;;5.90;;
77451;SDS011;66537;52.370;4.832;2023-04-29T11:53:36;10.95;;;5.30;;
77451;SDS011;66537;52.370;4.832;2023-04-29T11:56:01;12.88;;;5.75;;
77451;SDS011;66537;52.370;4.832;2023-04-29T11:58:27;11.18;;;5.18;;
77451;SDS011;66537;52.370;4.832;2023-04-29T12:00:52;11.70;;;5.50;;
77451;SDS011;66537;52.370;4.832;2023-04-29T12:03:18;11.07;;;5.40;;
77451;SDS011;66537;52.370;4.832;2023-04-29T12:05:45;12.63;;;5.60;;
77451;SDS011;66537;52.370;4.832;2023-04-29T12:08:12;11.98;;;5.85;;
77451;SDS011;66537;52.370;4.832;2023-04-29T12:10:38;13.07;;;5.35;;
77451;SDS011;66537;52.370;4.832;2023-04-29T12:13:03;11.40;;;5.80;;
77451;SDS011;66537;52.370;4.832;2023-04-29T12:15:29;11.80;;;5.20;;
77451;SDS011;66537;52.370;4.832;2023-04-29T12:17:55;11.98;;;6.07;;
77451;SDS011;66537;52.370;4.832;2023-04-29T12:20:20;13.93;;;5.90;;
77451;SDS011;66537;52.370;4.832;2023-04-29T12:22:46;12.98;;;5.55;;
77451;SDS011;66537;52.370;4.832;2023-04-29T12:25:11;11.95;;;5.70;;
77451;SDS011;66537;52.370;4.832;2023-04-29T12:27:40;13.65;;;6.25;;
77451;SDS011;66537;52.370;4.832;2023-04-29T12:30:09;14.57;;;6.00;;
77451;SDS011;66537;52.370;4.832;2023-04-29T12:32:36;9.55;;;5.15;;
77451;SDS011;66537;52.370;4.832;2023-04-29T12:35:02;10.88;;;4.75;;
77451;SDS011;66537;52.370;4.832;2023-04-29T12:37:27;11.02;;;5.03;;
77451;SDS011;66537;52.370;4.832;2023-04-29T12:39:53;10.23;;;5.22;;
77451;SDS011;66537;52.370;4.832;2023-04-29T12:42:19;13.80;;;5.47;;
77451;SDS011;66537;52.370;4.832;2023-04-29T12:44:45;14.90;;;5.18;;
77451;SDS011;66537;52.370;4.832;2023-04-29T12:47:11;11.18;;;5.35;;
77451;SDS011;66537;52.370;4.832;2023-04-29T12:49:40;12.82;;;4.80;;
77451;SDS011;66537;52.370;4.832;2023-04-29T12:52:07;10.57;;;4.90;;
77451;SDS011;66537;52.370;4.832;2023-04-29T12:54:34;13.35;;;5.38;;
77451;SDS011;66537;52.370;4.832;2023-04-29T12:57:05;10.65;;;5.47;;
77451;SDS011;66537;52.370;4.832;2023-04-29T12:59:32;12.60;;;5.70;;
77451;SDS011;66537;52.370;4.832;2023-04-29T13:01:57;12.05;;;4.78;;
77451;SDS011;66537;52.370;4.832;2023-04-29T13:04:22;11.93;;;5.13;;
77451;SDS011;66537;52.370;4.832;2023-04-29T13:06:48;11.10;;;5.03;;
77451;SDS011;66537;52.370;4.832;2023-04-29T13:09:13;12.48;;;5.00;;
77451;SDS011;66537;52.370;4.832;2023-04-29T13:11:38;13.80;;;5.50;;
77451;SDS011;66537;52.370;4.832;2023-04-29T13:14:04;11.88;;;6.22;;
77451;SDS011;66537;52.370;4.832;2023-04-29T13:16:33;13.30;;;5.97;;
77451;SDS011;66537;52.370;4.832;2023-04-29T13:18:59;13.20;;;4.72;;
77451;SDS011;66537;52.370;4.832;2023-04-29T13:21:25;10.10;;;4.20;;
77451;SDS011;66537;52.370;4.832;2023-04-29T13:23:52;12.70;;;5.28;;
77451;SDS011;66537;52.370;4.832;2023-04-29T13:26:18;13.80;;;4.97;;
77451;SDS011;66537;52.370;4.832;2023-04-29T13:28:43;9.80;;;4.38;;
77451;SDS011;66537;52.370;4.832;2023-04-29T13:31:08;11.65;;;4.88;;
77451;SDS011;66537;52.370;4.832;2023-04-29T13:33:34;12.88;;;5.45;;
77451;SDS011;66537;52.370;4.832;2023-04-29T13:35:59;10.47;;;4.97;;
77451;SDS011;66537;52.370;4.832;2023-04-29T13:38:24;12.43;;;5.68;;
77451;SDS011;66537;52.370;4.832;2023-04-29T13:40:50;12.40;;;4.57;;
77451;SDS011;66537;52.370;4.832;2023-04-29T13:43:15;13.48;;;4.93;;
77451;SDS011;66537;52.370;4.832;2023-04-29T13:45:41;10.57;;;4.53;;
77451;SDS011;66537;52.370;4.832;2023-04-29T13:48:06;12.50;;;4.63;;
77451;SDS011;66537;52.370;4.832;2023-04-29T13:50:32;12.65;;;4.75;;
77451;SDS011;66537;52.370;4.832;2023-04-29T13:52:57;13.55;;;4.65;;
77451;SDS011;66537;52.370;4.832;2023-04-29T13:55:23;11.80;;;4.90;;
77451;SDS011;66537;52.370;4.832;2023-04-29T13:57:48;11.90;;;3.97;;
77451;SDS011;66537;52.370;4.832;2023-04-29T14:00:14;10.00;;;4.38;;
77451;SDS011;66537;52.370;4.832;2023-04-29T14:02:40;10.38;;;4.63;;
77451;SDS011;66537;52.370;4.832;2023-04-29T14:05:06;11.48;;;5.05;;
77451;SDS011;66537;52.370;4.832;2023-04-29T14:07:34;9.82;;;4.00;;
77451;SDS011;66537;52.370;4.832;2023-04-29T14:09:59;11.48;;;3.60;;
77451;SDS011;66537;52.370;4.832;2023-04-29T14:12:25;8.40;;;4.00;;
77451;SDS011;66537;52.370;4.832;2023-04-29T14:14:50;10.40;;;3.70;;
77451;SDS011;66537;52.370;4.832;2023-04-29T14:17:15;9.47;;;3.17;;
77451;SDS011;66537;52.370;4.832;2023-04-29T14:19:41;8.70;;;3.53;;
77451;SDS011;66537;52.370;4.832;2023-04-29T14:22:06;9.10;;;3.40;;
77451;SDS011;66537;52.370;4.832;2023-04-29T14:24:31;10.07;;;3.57;;
77451;SDS011;66537;52.370;4.832;2023-04-29T14:26:57;9.00;;;3.10;;
77451;SDS011;66537;52.370;4.832;2023-04-29T14:29:23;10.15;;;2.90;;
77451;SDS011;66537;52.370;4.832;2023-04-29T14:31:48;9.63;;;3.30;;
77451;SDS011;66537;52.370;4.832;2023-04-29T14:34:13;10.15;;;3.10;;
77451;SDS011;66537;52.370;4.832;2023-04-29T14:36:39;11.03;;;2.30;;
77451;SDS011;66537;52.370;4.832;2023-04-29T14:39:04;6.60;;;2.00;;
77451;SDS011;66537;52.370;4.832;2023-04-29T14:41:30;6.32;;;1.90;;
77451;SDS011;66537;52.370;4.832;2023-04-29T14:43:55;4.93;;;2.53;;
77451;SDS011;66537;52.370;4.832;2023-04-29T14:46:20;5.63;;;1.50;;
77451;SDS011;66537;52.370;4.832;2023-04-29T14:48:47;5.32;;;1.80;;
77451;SDS011;66537;52.370;4.832;2023-04-29T14:51:12;5.63;;;2.00;;
77451;SDS011;66537;52.370;4.832;2023-04-29T14:53:38;6.70;;;1.80;;